sensor_id;sensor_type;location;lat;lon;timestamp;P1;durP1;ratioP1;P2;durP2;ratioP2
21472;SDS011;10898;48.072;11.682;2023-01-29T00:00:26;33.20;;;18.13;;
21472;SDS011;10898;48.072;11.682;2023-01-29T00:02:29;32.50;;;18.48;;
21472;SDS011;10898;48.072;11.682;2023-01-29T00:04:33;30.95;;;17.48;;
21472;SDS011;10898;48.072;11.682;2023-01-29T00:06:35;31.33;;;17.90;;
21472;SDS011;10898;48.072;11.682;2023-01-29T00:08:38;34.78;;;19.85;;
21472;SDS011;10898;48.072;11.682;2023-01-29T00:10:40;40.53;;;20.63;;
21472;SDS011;10898;48.072;11.682;2023-01-29T00:12:42;33.17;;;19.23;;
21472;SDS011;10898;48.072;11.682;2023-01-29T00:14:44;33.75;;;18.75;;
21472;SDS011;10898;48.072;11.682;2023-01-29T00:16:46;32.03;;;18.08;;
21472;SDS011;10898;48.072;11.682;2023-01-29T00:18:49;34.75;;;19.58;;
21472;SDS011;10898;48.072;11.682;2023-01-29T00:20:51;32.85;;;18.77;;
21472;SDS011;10898;48.072;11.682;2023-01-29T00:22:53;35.50;;;19.95;;
21472;SDS011;10898;48.072;11.682;2023-01-29T00:24:55;32.97;;;18.83;;
21472;SDS011;10898;48.072;11.682;2023-01-29T00:26:57;37.83;;;20.50;;
21472;SDS011;10898;48.072;11.682;2023-01-29T00:29:00;33.08;;;20.00;;
21472;SDS011;10898;48.072;11.682;2023-01-29T00:31:09;33.15;;;19.15;;
21472;SDS011;10898;48.072;11.682;2023-01-29T00:33:12;36.53;;;20.50;;
21472;SDS011;10898;48.072;11.682;2023-01-29T00:35:14;35.33;;;20.27;;
21472;SDS011;10898;48.072;11.682;2023-01-29T00:37:16;40.85;;;21.27;;
21472;SDS011;10898;48.072;11.682;2023-01-29T00:39:19;38.72;;;21.45;;
21472;SDS011;10898;48.072;11.682;2023-01-29T00:41:39;39.25;;;21.85;;
21472;SDS011;10898;48.072;11.682;2023-01-29T00:44:00;42.05;;;20.80;;
21472;SDS011;10898;48.072;11.682;2023-01-29T00:46:21;36.15;;;20.13;;
21472;SDS011;10898;48.072;11.682;2023-01-29T00:48:23;36.13;;;19.80;;
21472;SDS011;10898;48.072;11.682;2023-01-29T00:50:26;37.13;;;19.33;;
21472;SDS011;10898;48.072;11.682;2023-01-29T00:52:28;34.90;;;19.05;;
21472;SDS011;10898;48.072;11.682;2023-01-29T00:54:30;36.05;;;19.25;;
21472;SDS011;10898;48.072;11.682;2023-01-29T00:56:34;37.15;;;20.15;;
21472;SDS011;10898;48.072;11.682;2023-01-29T00:58:37;35.20;;;19.88;;
21472;SDS011;10898;48.072;11.682;2023-01-29T01:00:39;35.88;;;19.85;;
21472;SDS011;10898;48.072;11.682;2023-01-29T01:02:41;37.10;;;19.25;;
21472;SDS011;10898;48.072;11.682;2023-01-29T01:05:02;35.25;;;19.38;;
21472;SDS011;10898;48.072;11.682;2023-01-29T01:07:06;35.30;;;20.58;;
21472;SDS011;10898;48.072;11.682;2023-01-29T01:09:09;35.75;;;19.77;;
21472;SDS011;10898;48.072;11.682;2023-01-29T01:11:30;36.75;;;19.40;;
21472;SDS011;10898;48.072;11.682;2023-01-29T01:13:34;33.97;;;19.88;;
21472;SDS011;10898;48.072;11.682;2023-01-29T01:15:37;34.55;;;18.42;;
21472;SDS011;10898;48.072;11.682;2023-01-29T01:17:39;31.23;;;18.83;;
21472;SDS011;10898;48.072;11.682;2023-01-29T01:19:41;33.78;;;18.83;;
21472;SDS011;10898;48.072;11.682;2023-01-29T01:21:44;34.00;;;19.00;;
21472;SDS011;10898;48.072;11.682;2023-01-29T01:23:48;30.15;;;18.00;;
21472;SDS011;10898;48.072;11.682;2023-01-29T01:25:52;31.00;;;18.67;;
21472;SDS011;10898;48.072;11.682;2023-01-29T01:27:55;29.00;;;17.67;;
21472;SDS011;10898;48.072;11.682;2023-01-29T01:30:00;33.97;;;19.58;;
21472;SDS011;10898;48.072;11.682;2023-01-29T01:32:03;29.88;;;18.20;;
21472;SDS011;10898;48.072;11.682;2023-01-29T01:34:05;31.30;;;19.58;;
21472;SDS011;10898;48.072;11.682;2023-01-29T01:36:07;31.27;;;18.50;;
21472;SDS011;10898;48.072;11.682;2023-01-29T01:38:10;29.42;;;18.17;;
21472;SDS011;10898;48.072;11.682;2023-01-29T01:40:13;28.95;;;17.52;;
21472;SDS011;10898;48.072;11.682;2023-01-29T01:42:18;30.02;;;18.85;;
21472;SDS011;10898;48.072;11.682;2023-01-29T01:46:41;28.92;;;18.00;;
21472;SDS011;10898;48.072;11.682;2023-01-29T01:48:44;27.83;;;17.65;;
21472;SDS011;10898;48.072;11.682;2023-01-29T01:50:48;29.63;;;17.77;;
21472;SDS011;10898;48.072;11.682;2023-01-29T01:52:52;29.25;;;18.23;;
21472;SDS011;10898;48.072;11.682;2023-01-29T01:54:56;26.50;;;17.33;;
21472;SDS011;10898;48.072;11.682;2023-01-29T01:57:00;26.40;;;16.25;;
21472;SDS011;10898;48.072;11.682;2023-01-29T01:59:16;28.08;;;17.35;;
21472;SDS011;10898;48.072;11.682;2023-01-29T02:01:19;26.55;;;17.15;;
21472;SDS011;10898;48.072;11.682;2023-01-29T02:03:30;26.30;;;16.42;;
21472;SDS011;10898;48.072;11.682;2023-01-29T02:05:53;25.98;;;17.15;;
21472;SDS011;10898;48.072;11.682;2023-01-29T02:08:17;27.20;;;16.60;;
21472;SDS011;10898;48.072;11.682;2023-01-29T02:10:44;26.48;;;16.90;;
21472;SDS011;10898;48.072;11.682;2023-01-29T02:12:46;26.58;;;16.73;;
21472;SDS011;10898;48.072;11.682;2023-01-29T02:14:48;25.35;;;17.35;;
21472;SDS011;10898;48.072;11.682;2023-01-29T02:16:52;25.27;;;16.52;;
21472;SDS011;10898;48.072;11.682;2023-01-29T02:18:54;30.25;;;17.27;;
21472;SDS011;10898;48.072;11.682;2023-01-29T02:27:32;27.20;;;16.88;;
21472;SDS011;10898;48.072;11.682;2023-01-29T02:31:43;26.65;;;16.55;;
21472;SDS011;10898;48.072;11.682;2023-01-29T02:33:55;24.00;;;15.68;;
21472;SDS011;10898;48.072;11.682;2023-01-29T02:36:08;26.98;;;15.98;;
21472;SDS011;10898;48.072;11.682;2023-01-29T02:46:32;24.08;;;14.98;;
21472;SDS011;10898;48.072;11.682;2023-01-29T02:48:39;25.08;;;17.23;;
21472;SDS011;10898;48.072;11.682;2023-01-29T02:50:47;28.75;;;18.42;;
21472;SDS011;10898;48.072;11.682;2023-01-29T02:54:58;25.00;;;16.30;;
21472;SDS011;10898;48.072;11.682;2023-01-29T02:57:04;26.42;;;16.80;;
21472;SDS011;10898;48.072;11.682;2023-01-29T02:59:18;27.15;;;17.30;;
21472;SDS011;10898;48.072;11.682;2023-01-29T03:01:28;28.20;;;18.20;;
21472;SDS011;10898;48.072;11.682;2023-01-29T03:03:36;25.20;;;16.45;;
21472;SDS011;10898;48.072;11.682;2023-01-29T03:08:00;26.90;;;17.30;;
21472;SDS011;10898;48.072;11.682;2023-01-29T03:12:14;26.88;;;17.17;;
21472;SDS011;10898;48.072;11.682;2023-01-29T03:16:51;26.63;;;16.30;;
21472;SDS011;10898;48.072;11.682;2023-01-29T03:18:56;27.63;;;17.60;;
21472;SDS011;10898;48.072;11.682;2023-01-29T03:21:02;25.70;;;16.77;;
21472;SDS011;10898;48.072;11.682;2023-01-29T03:23:26;25.08;;;17.40;;
21472;SDS011;10898;48.072;11.682;2023-01-29T03:25:50;24.70;;;16.52;;
21472;SDS011;10898;48.072;11.682;2023-01-29T03:28:11;25.23;;;17.20;;
21472;SDS011;10898;48.072;11.682;2023-01-29T03:30:35;27.60;;;17.50;;
21472;SDS011;10898;48.072;11.682;2023-01-29T03:32:58;28.27;;;18.00;;
21472;SDS011;10898;48.072;11.682;2023-01-29T03:35:02;28.50;;;18.20;;
21472;SDS011;10898;48.072;11.682;2023-01-29T03:37:07;30.27;;;18.08;;
21472;SDS011;10898;48.072;11.682;2023-01-29T03:39:09;29.17;;;17.90;;
21472;SDS011;10898;48.072;11.682;2023-01-29T03:41:29;25.00;;;17.50;;
21472;SDS011;10898;48.072;11.682;2023-01-29T03:43:35;32.47;;;17.52;;
21472;SDS011;10898;48.072;11.682;2023-01-29T03:52:58;26.48;;;16.75;;
21472;SDS011;10898;48.072;11.682;2023-01-29T03:54:57;27.17;;;17.48;;
21472;SDS011;10898;48.072;11.682;2023-01-29T03:57:14;28.85;;;17.55;;
21472;SDS011;10898;48.072;11.682;2023-01-29T03:59:29;31.48;;;19.02;;
21472;SDS011;10898;48.072;11.682;2023-01-29T04:01:35;27.08;;;17.02;;
21472;SDS011;10898;48.072;11.682;2023-01-29T04:03:48;26.92;;;17.40;;
21472;SDS011;10898;48.072;11.682;2023-01-29T04:08:02;28.55;;;17.63;;
21472;SDS011;10898;48.072;11.682;2023-01-29T04:10:10;25.33;;;17.33;;
21472;SDS011;10898;48.072;11.682;2023-01-29T04:12:13;26.48;;;16.58;;
21472;SDS011;10898;48.072;11.682;2023-01-29T04:14:17;26.58;;;16.95;;
21472;SDS011;10898;48.072;11.682;2023-01-29T04:16:21;28.13;;;17.77;;
21472;SDS011;10898;48.072;11.682;2023-01-29T04:18:24;26.75;;;17.10;;
21472;SDS011;10898;48.072;11.682;2023-01-29T04:20:27;26.52;;;17.17;;
21472;SDS011;10898;48.072;11.682;2023-01-29T04:22:34;26.88;;;16.70;;
21472;SDS011;10898;48.072;11.682;2023-01-29T04:24:36;26.20;;;17.73;;
21472;SDS011;10898;48.072;11.682;2023-01-29T04:37:41;25.27;;;16.33;;
21472;SDS011;10898;48.072;11.682;2023-01-29T04:39:48;26.98;;;16.95;;
21472;SDS011;10898;48.072;11.682;2023-01-29T04:44:15;28.35;;;17.00;;
21472;SDS011;10898;48.072;11.682;2023-01-29T04:46:26;26.00;;;15.63;;
21472;SDS011;10898;48.072;11.682;2023-01-29T04:48:40;27.85;;;17.27;;
21472;SDS011;10898;48.072;11.682;2023-01-29T04:50:56;27.35;;;16.05;;
21472;SDS011;10898;48.072;11.682;2023-01-29T04:55:06;26.52;;;16.77;;
21472;SDS011;10898;48.072;11.682;2023-01-29T04:57:16;23.63;;;16.25;;
21472;SDS011;10898;48.072;11.682;2023-01-29T04:59:28;28.23;;;17.15;;
21472;SDS011;10898;48.072;11.682;2023-01-29T05:01:31;27.60;;;16.45;;
21472;SDS011;10898;48.072;11.682;2023-01-29T05:03:35;26.27;;;17.60;;
21472;SDS011;10898;48.072;11.682;2023-01-29T05:05:42;26.95;;;16.92;;
21472;SDS011;10898;48.072;11.682;2023-01-29T05:07:45;27.48;;;18.02;;
21472;SDS011;10898;48.072;11.682;2023-01-29T05:09:48;27.58;;;17.38;;
21472;SDS011;10898;48.072;11.682;2023-01-29T05:11:51;27.15;;;16.88;;
21472;SDS011;10898;48.072;11.682;2023-01-29T05:15:59;24.67;;;14.63;;
21472;SDS011;10898;48.072;11.682;2023-01-29T05:18:03;24.83;;;16.20;;
21472;SDS011;10898;48.072;11.682;2023-01-29T05:20:09;27.15;;;16.35;;
21472;SDS011;10898;48.072;11.682;2023-01-29T05:22:12;25.17;;;16.42;;
21472;SDS011;10898;48.072;11.682;2023-01-29T05:24:20;25.77;;;16.45;;
21472;SDS011;10898;48.072;11.682;2023-01-29T05:26:22;28.15;;;17.40;;
21472;SDS011;10898;48.072;11.682;2023-01-29T05:28:43;27.23;;;15.88;;
21472;SDS011;10898;48.072;11.682;2023-01-29T05:30:46;26.92;;;17.33;;
21472;SDS011;10898;48.072;11.682;2023-01-29T05:32:49;26.40;;;16.88;;
21472;SDS011;10898;48.072;11.682;2023-01-29T05:34:51;28.35;;;17.35;;
21472;SDS011;10898;48.072;11.682;2023-01-29T05:36:53;24.65;;;16.75;;
21472;SDS011;10898;48.072;11.682;2023-01-29T05:38:56;26.45;;;17.00;;
21472;SDS011;10898;48.072;11.682;2023-01-29T05:40:58;26.73;;;18.20;;
21472;SDS011;10898;48.072;11.682;2023-01-29T05:43:00;26.17;;;17.02;;
21472;SDS011;10898;48.072;11.682;2023-01-29T05:45:03;26.48;;;16.05;;
21472;SDS011;10898;48.072;11.682;2023-01-29T05:47:05;26.65;;;16.75;;
21472;SDS011;10898;48.072;11.682;2023-01-29T05:49:07;27.45;;;18.50;;
21472;SDS011;10898;48.072;11.682;2023-01-29T05:51:10;27.05;;;17.17;;
21472;SDS011;10898;48.072;11.682;2023-01-29T05:53:12;28.05;;;17.50;;
21472;SDS011;10898;48.072;11.682;2023-01-29T05:55:14;26.27;;;17.23;;
21472;SDS011;10898;48.072;11.682;2023-01-29T05:57:16;24.70;;;16.52;;
21472;SDS011;10898;48.072;11.682;2023-01-29T05:59:19;26.45;;;16.30;;
21472;SDS011;10898;48.072;11.682;2023-01-29T06:01:22;24.77;;;15.70;;
21472;SDS011;10898;48.072;11.682;2023-01-29T06:03:25;26.10;;;15.30;;
21472;SDS011;10898;48.072;11.682;2023-01-29T06:05:27;26.27;;;16.27;;
21472;SDS011;10898;48.072;11.682;2023-01-29T06:07:29;26.52;;;16.45;;
21472;SDS011;10898;48.072;11.682;2023-01-29T06:09:31;25.48;;;16.02;;
21472;SDS011;10898;48.072;11.682;2023-01-29T06:11:34;23.13;;;15.90;;
21472;SDS011;10898;48.072;11.682;2023-01-29T06:13:36;26.13;;;15.95;;
21472;SDS011;10898;48.072;11.682;2023-01-29T06:15:39;24.30;;;15.63;;
21472;SDS011;10898;48.072;11.682;2023-01-29T06:19:43;24.20;;;15.77;;
21472;SDS011;10898;48.072;11.682;2023-01-29T06:21:45;24.05;;;16.20;;
21472;SDS011;10898;48.072;11.682;2023-01-29T06:23:47;25.70;;;15.82;;
21472;SDS011;10898;48.072;11.682;2023-01-29T06:25:49;25.70;;;16.23;;
21472;SDS011;10898;48.072;11.682;2023-01-29T06:27:52;22.80;;;15.38;;
21472;SDS011;10898;48.072;11.682;2023-01-29T06:29:54;26.73;;;16.58;;
21472;SDS011;10898;48.072;11.682;2023-01-29T06:31:56;24.10;;;15.23;;
21472;SDS011;10898;48.072;11.682;2023-01-29T06:33:58;22.25;;;14.35;;
21472;SDS011;10898;48.072;11.682;2023-01-29T06:36:02;24.90;;;16.35;;
21472;SDS011;10898;48.072;11.682;2023-01-29T06:38:04;20.23;;;13.30;;
21472;SDS011;10898;48.072;11.682;2023-01-29T06:40:07;18.92;;;12.57;;
21472;SDS011;10898;48.072;11.682;2023-01-29T06:42:09;21.17;;;13.63;;
21472;SDS011;10898;48.072;11.682;2023-01-29T06:44:11;21.77;;;13.77;;
21472;SDS011;10898;48.072;11.682;2023-01-29T06:46:13;25.05;;;15.80;;
21472;SDS011;10898;48.072;11.682;2023-01-29T06:48:16;25.52;;;15.52;;
21472;SDS011;10898;48.072;11.682;2023-01-29T06:50:18;25.50;;;16.60;;
21472;SDS011;10898;48.072;11.682;2023-01-29T06:52:20;26.52;;;16.77;;
21472;SDS011;10898;48.072;11.682;2023-01-29T06:54:22;25.95;;;15.90;;
21472;SDS011;10898;48.072;11.682;2023-01-29T06:56:24;23.90;;;15.07;;
21472;SDS011;10898;48.072;11.682;2023-01-29T06:58:26;22.95;;;13.85;;
21472;SDS011;10898;48.072;11.682;2023-01-29T07:00:29;22.38;;;14.88;;
21472;SDS011;10898;48.072;11.682;2023-01-29T07:02:31;24.10;;;15.10;;
21472;SDS011;10898;48.072;11.682;2023-01-29T07:04:34;25.10;;;15.63;;
21472;SDS011;10898;48.072;11.682;2023-01-29T07:06:38;23.92;;;15.68;;
21472;SDS011;10898;48.072;11.682;2023-01-29T07:08:40;27.63;;;16.52;;
21472;SDS011;10898;48.072;11.682;2023-01-29T07:10:42;22.70;;;15.40;;
21472;SDS011;10898;48.072;11.682;2023-01-29T07:12:44;25.30;;;15.57;;
21472;SDS011;10898;48.072;11.682;2023-01-29T07:14:46;24.88;;;15.75;;
21472;SDS011;10898;48.072;11.682;2023-01-29T07:16:48;23.73;;;14.85;;
21472;SDS011;10898;48.072;11.682;2023-01-29T07:18:51;23.85;;;15.68;;
21472;SDS011;10898;48.072;11.682;2023-01-29T07:20:53;22.35;;;14.52;;
21472;SDS011;10898;48.072;11.682;2023-01-29T07:22:56;23.20;;;14.73;;
21472;SDS011;10898;48.072;11.682;2023-01-29T07:24:58;25.65;;;15.90;;
21472;SDS011;10898;48.072;11.682;2023-01-29T07:27:00;27.17;;;17.33;;
21472;SDS011;10898;48.072;11.682;2023-01-29T07:29:03;26.63;;;17.48;;
21472;SDS011;10898;48.072;11.682;2023-01-29T07:31:06;23.17;;;15.40;;
21472;SDS011;10898;48.072;11.682;2023-01-29T07:33:09;20.63;;;13.60;;
21472;SDS011;10898;48.072;11.682;2023-01-29T07:35:11;19.52;;;12.43;;
21472;SDS011;10898;48.072;11.682;2023-01-29T07:37:13;14.93;;;9.73;;
21472;SDS011;10898;48.072;11.682;2023-01-29T07:39:15;19.27;;;11.32;;
21472;SDS011;10898;48.072;11.682;2023-01-29T07:41:18;17.90;;;11.43;;
21472;SDS011;10898;48.072;11.682;2023-01-29T07:43:20;14.85;;;9.90;;
21472;SDS011;10898;48.072;11.682;2023-01-29T07:45:24;12.13;;;8.10;;
21472;SDS011;10898;48.072;11.682;2023-01-29T07:47:27;10.23;;;6.82;;
21472;SDS011;10898;48.072;11.682;2023-01-29T07:49:29;12.38;;;7.35;;
21472;SDS011;10898;48.072;11.682;2023-01-29T07:51:31;11.65;;;8.35;;
21472;SDS011;10898;48.072;11.682;2023-01-29T07:53:33;17.60;;;10.77;;
21472;SDS011;10898;48.072;11.682;2023-01-29T07:55:37;18.02;;;11.48;;
21472;SDS011;10898;48.072;11.682;2023-01-29T07:57:39;20.00;;;13.38;;
21472;SDS011;10898;48.072;11.682;2023-01-29T07:59:41;19.42;;;12.80;;
21472;SDS011;10898;48.072;11.682;2023-01-29T08:01:43;20.88;;;13.30;;
21472;SDS011;10898;48.072;11.682;2023-01-29T08:03:45;18.92;;;12.15;;
21472;SDS011;10898;48.072;11.682;2023-01-29T08:05:50;18.73;;;12.68;;
21472;SDS011;10898;48.072;11.682;2023-01-29T08:07:52;21.10;;;14.25;;
21472;SDS011;10898;48.072;11.682;2023-01-29T08:10:07;21.17;;;13.73;;
21472;SDS011;10898;48.072;11.682;2023-01-29T08:12:12;20.52;;;13.25;;
21472;SDS011;10898;48.072;11.682;2023-01-29T08:16:17;20.80;;;13.20;;
21472;SDS011;10898;48.072;11.682;2023-01-29T08:18:19;19.17;;;13.40;;
21472;SDS011;10898;48.072;11.682;2023-01-29T08:20:21;23.20;;;14.88;;
21472;SDS011;10898;48.072;11.682;2023-01-29T08:22:23;22.92;;;14.82;;
21472;SDS011;10898;48.072;11.682;2023-01-29T08:24:25;21.58;;;13.52;;
21472;SDS011;10898;48.072;11.682;2023-01-29T08:26:47;23.23;;;14.57;;
21472;SDS011;10898;48.072;11.682;2023-01-29T08:28:50;21.13;;;14.38;;
21472;SDS011;10898;48.072;11.682;2023-01-29T08:30:52;19.00;;;12.40;;
21472;SDS011;10898;48.072;11.682;2023-01-29T08:32:55;15.82;;;10.98;;
21472;SDS011;10898;48.072;11.682;2023-01-29T08:34:57;12.15;;;8.82;;
21472;SDS011;10898;48.072;11.682;2023-01-29T08:36:59;11.48;;;8.00;;
21472;SDS011;10898;48.072;11.682;2023-01-29T08:39:01;12.15;;;8.18;;
21472;SDS011;10898;48.072;11.682;2023-01-29T08:41:04;11.48;;;7.50;;
21472;SDS011;10898;48.072;11.682;2023-01-29T08:45:09;11.43;;;7.90;;
21472;SDS011;10898;48.072;11.682;2023-01-29T08:49:14;11.15;;;7.72;;
21472;SDS011;10898;48.072;11.682;2023-01-29T08:51:16;13.88;;;8.73;;
21472;SDS011;10898;48.072;11.682;2023-01-29T08:53:18;12.73;;;8.13;;
21472;SDS011;10898;48.072;11.682;2023-01-29T08:55:24;11.50;;;8.55;;
21472;SDS011;10898;48.072;11.682;2023-01-29T08:57:27;13.90;;;10.15;;
21472;SDS011;10898;48.072;11.682;2023-01-29T08:59:29;15.10;;;9.38;;
21472;SDS011;10898;48.072;11.682;2023-01-29T09:01:31;13.30;;;9.00;;
21472;SDS011;10898;48.072;11.682;2023-01-29T09:03:33;12.60;;;8.45;;
21472;SDS011;10898;48.072;11.682;2023-01-29T09:05:36;15.38;;;9.48;;
21472;SDS011;10898;48.072;11.682;2023-01-29T09:07:39;13.00;;;8.93;;
21472;SDS011;10898;48.072;11.682;2023-01-29T09:09:41;12.77;;;8.88;;
21472;SDS011;10898;48.072;11.682;2023-01-29T09:11:43;12.15;;;8.50;;
21472;SDS011;10898;48.072;11.682;2023-01-29T09:13:45;16.05;;;9.30;;
21472;SDS011;10898;48.072;11.682;2023-01-29T09:15:48;13.05;;;8.88;;
21472;SDS011;10898;48.072;11.682;2023-01-29T09:17:50;13.45;;;8.70;;
21472;SDS011;10898;48.072;11.682;2023-01-29T09:19:52;12.00;;;8.10;;
21472;SDS011;10898;48.072;11.682;2023-01-29T09:21:55;13.48;;;8.57;;
21472;SDS011;10898;48.072;11.682;2023-01-29T09:23:57;10.93;;;7.60;;
21472;SDS011;10898;48.072;11.682;2023-01-29T09:25:59;13.07;;;8.93;;
21472;SDS011;10898;48.072;11.682;2023-01-29T09:28:01;10.68;;;7.97;;
21472;SDS011;10898;48.072;11.682;2023-01-29T09:30:04;11.32;;;8.02;;
21472;SDS011;10898;48.072;11.682;2023-01-29T09:34:09;10.70;;;7.77;;
21472;SDS011;10898;48.072;11.682;2023-01-29T09:36:11;13.93;;;8.70;;
21472;SDS011;10898;48.072;11.682;2023-01-29T09:38:13;11.95;;;7.93;;
21472;SDS011;10898;48.072;11.682;2023-01-29T09:40:35;12.45;;;7.95;;
21472;SDS011;10898;48.072;11.682;2023-01-29T09:42:41;11.00;;;8.18;;
21472;SDS011;10898;48.072;11.682;2023-01-29T09:46:50;12.32;;;8.45;;
21472;SDS011;10898;48.072;11.682;2023-01-29T09:49:00;14.02;;;9.38;;
21472;SDS011;10898;48.072;11.682;2023-01-29T09:51:06;15.32;;;9.98;;
21472;SDS011;10898;48.072;11.682;2023-01-29T09:59:53;13.65;;;8.95;;
21472;SDS011;10898;48.072;11.682;2023-01-29T10:02:02;11.65;;;8.23;;
21472;SDS011;10898;48.072;11.682;2023-01-29T10:06:42;12.10;;;8.50;;
21472;SDS011;10898;48.072;11.682;2023-01-29T10:15:49;12.32;;;8.10;;
21472;SDS011;10898;48.072;11.682;2023-01-29T10:25:12;8.65;;;7.07;;
21472;SDS011;10898;48.072;11.682;2023-01-29T10:27:16;10.15;;;7.68;;
21472;SDS011;10898;48.072;11.682;2023-01-29T10:29:19;11.43;;;8.35;;
21472;SDS011;10898;48.072;11.682;2023-01-29T10:33:30;10.20;;;7.93;;
21472;SDS011;10898;48.072;11.682;2023-01-29T10:35:55;11.63;;;8.13;;
21472;SDS011;10898;48.072;11.682;2023-01-29T10:38:01;11.02;;;7.93;;
21472;SDS011;10898;48.072;11.682;2023-01-29T10:40:17;11.20;;;8.20;;
21472;SDS011;10898;48.072;11.682;2023-01-29T10:42:28;9.20;;;7.13;;
21472;SDS011;10898;48.072;11.682;2023-01-29T10:44:37;11.15;;;8.45;;
21472;SDS011;10898;48.072;11.682;2023-01-29T10:46:49;11.30;;;8.35;;
21472;SDS011;10898;48.072;11.682;2023-01-29T10:49:07;12.65;;;8.95;;
21472;SDS011;10898;48.072;11.682;2023-01-29T10:54:22;11.35;;;9.05;;
21472;SDS011;10898;48.072;11.682;2023-01-29T10:58:26;12.55;;;8.68;;
21472;SDS011;10898;48.072;11.682;2023-01-29T11:00:39;10.48;;;8.07;;
21472;SDS011;10898;48.072;11.682;2023-01-29T11:02:45;12.35;;;8.52;;
21472;SDS011;10898;48.072;11.682;2023-01-29T11:04:51;12.50;;;8.82;;
21472;SDS011;10898;48.072;11.682;2023-01-29T11:06:53;11.20;;;7.40;;
21472;SDS011;10898;48.072;11.682;2023-01-29T11:11:14;10.80;;;7.93;;
21472;SDS011;10898;48.072;11.682;2023-01-29T11:13:17;12.55;;;8.60;;
21472;SDS011;10898;48.072;11.682;2023-01-29T11:15:21;12.23;;;8.13;;
21472;SDS011;10898;48.072;11.682;2023-01-29T11:17:25;13.57;;;8.80;;
21472;SDS011;10898;48.072;11.682;2023-01-29T11:19:38;13.10;;;9.25;;
21472;SDS011;10898;48.072;11.682;2023-01-29T11:26:07;12.95;;;9.85;;
21472;SDS011;10898;48.072;11.682;2023-01-29T11:28:11;10.93;;;8.43;;
21472;SDS011;10898;48.072;11.682;2023-01-29T11:30:15;10.80;;;8.45;;
21472;SDS011;10898;48.072;11.682;2023-01-29T11:34:23;16.80;;;9.85;;
21472;SDS011;10898;48.072;11.682;2023-01-29T11:36:29;16.58;;;9.55;;
21472;SDS011;10898;48.072;11.682;2023-01-29T11:38:33;11.52;;;8.18;;
21472;SDS011;10898;48.072;11.682;2023-01-29T11:40:38;11.32;;;8.18;;
21472;SDS011;10898;48.072;11.682;2023-01-29T11:42:41;15.23;;;8.93;;
21472;SDS011;10898;48.072;11.682;2023-01-29T11:44:43;10.07;;;7.43;;
21472;SDS011;10898;48.072;11.682;2023-01-29T11:46:45;12.63;;;8.45;;
21472;SDS011;10898;48.072;11.682;2023-01-29T11:48:49;12.13;;;8.65;;
21472;SDS011;10898;48.072;11.682;2023-01-29T11:51:02;13.23;;;9.30;;
21472;SDS011;10898;48.072;11.682;2023-01-29T11:53:16;13.10;;;9.40;;
21472;SDS011;10898;48.072;11.682;2023-01-29T11:55:33;11.40;;;8.43;;
21472;SDS011;10898;48.072;11.682;2023-01-29T11:57:55;11.05;;;8.68;;
21472;SDS011;10898;48.072;11.682;2023-01-29T12:00:03;10.27;;;8.05;;
21472;SDS011;10898;48.072;11.682;2023-01-29T12:04:17;10.23;;;8.27;;
21472;SDS011;10898;48.072;11.682;2023-01-29T12:06:30;10.90;;;7.60;;
21472;SDS011;10898;48.072;11.682;2023-01-29T12:08:37;10.85;;;8.35;;
21472;SDS011;10898;48.072;11.682;2023-01-29T12:10:40;13.60;;;9.45;;
21472;SDS011;10898;48.072;11.682;2023-01-29T12:12:43;12.55;;;8.50;;
21472;SDS011;10898;48.072;11.682;2023-01-29T12:14:45;11.63;;;8.55;;
21472;SDS011;10898;48.072;11.682;2023-01-29T12:17:31;10.35;;;8.07;;
21472;SDS011;10898;48.072;11.682;2023-01-29T12:27:50;14.15;;;9.07;;
21472;SDS011;10898;48.072;11.682;2023-01-29T12:29:56;12.38;;;8.65;;
21472;SDS011;10898;48.072;11.682;2023-01-29T12:38:22;14.73;;;8.88;;
21472;SDS011;10898;48.072;11.682;2023-01-29T12:40:26;14.35;;;9.23;;
21472;SDS011;10898;48.072;11.682;2023-01-29T12:42:30;19.00;;;9.07;;
21472;SDS011;10898;48.072;11.682;2023-01-29T12:44:34;12.57;;;9.13;;
21472;SDS011;10898;48.072;11.682;2023-01-29T12:46:43;12.80;;;8.40;;
21472;SDS011;10898;48.072;11.682;2023-01-29T12:48:50;12.80;;;8.63;;
21472;SDS011;10898;48.072;11.682;2023-01-29T12:50:53;14.27;;;9.55;;
21472;SDS011;10898;48.072;11.682;2023-01-29T12:53:40;12.27;;;8.90;;
21472;SDS011;10898;48.072;11.682;2023-01-29T12:55:23;14.93;;;9.65;;
21472;SDS011;10898;48.072;11.682;2023-01-29T12:59:39;15.85;;;9.70;;
21472;SDS011;10898;48.072;11.682;2023-01-29T13:01:48;13.32;;;9.48;;
21472;SDS011;10898;48.072;11.682;2023-01-29T13:03:52;11.85;;;8.55;;
21472;SDS011;10898;48.072;11.682;2023-01-29T13:05:59;10.68;;;8.60;;
21472;SDS011;10898;48.072;11.682;2023-01-29T13:08:20;14.95;;;10.30;;
21472;SDS011;10898;48.072;11.682;2023-01-29T13:10:25;14.43;;;10.13;;
21472;SDS011;10898;48.072;11.682;2023-01-29T13:12:29;14.32;;;9.63;;
21472;SDS011;10898;48.072;11.682;2023-01-29T13:14:39;13.35;;;9.43;;
21472;SDS011;10898;48.072;11.682;2023-01-29T13:16:44;16.35;;;10.52;;
21472;SDS011;10898;48.072;11.682;2023-01-29T13:18:53;12.43;;;9.40;;
21472;SDS011;10898;48.072;11.682;2023-01-29T13:20:57;13.65;;;9.32;;
21472;SDS011;10898;48.072;11.682;2023-01-29T13:23:03;13.02;;;9.13;;
21472;SDS011;10898;48.072;11.682;2023-01-29T13:25:11;10.88;;;8.70;;
21472;SDS011;10898;48.072;11.682;2023-01-29T13:27:23;12.52;;;8.75;;
21472;SDS011;10898;48.072;11.682;2023-01-29T13:29:27;12.75;;;9.15;;
21472;SDS011;10898;48.072;11.682;2023-01-29T13:31:38;12.43;;;8.90;;
21472;SDS011;10898;48.072;11.682;2023-01-29T13:33:42;13.85;;;9.15;;
21472;SDS011;10898;48.072;11.682;2023-01-29T13:35:44;11.30;;;8.30;;
21472;SDS011;10898;48.072;11.682;2023-01-29T13:39:49;10.32;;;8.02;;
21472;SDS011;10898;48.072;11.682;2023-01-29T13:41:53;11.05;;;7.68;;
21472;SDS011;10898;48.072;11.682;2023-01-29T13:43:55;11.50;;;8.52;;
21472;SDS011;10898;48.072;11.682;2023-01-29T13:45:58;11.68;;;8.05;;
21472;SDS011;10898;48.072;11.682;2023-01-29T13:52:38;12.57;;;8.15;;
21472;SDS011;10898;48.072;11.682;2023-01-29T13:54:54;10.32;;;7.43;;
21472;SDS011;10898;48.072;11.682;2023-01-29T13:56:58;9.95;;;8.25;;
21472;SDS011;10898;48.072;11.682;2023-01-29T13:59:01;9.23;;;7.63;;
21472;SDS011;10898;48.072;11.682;2023-01-29T14:01:05;12.15;;;8.60;;
21472;SDS011;10898;48.072;11.682;2023-01-29T14:11:46;11.93;;;8.05;;
21472;SDS011;10898;48.072;11.682;2023-01-29T14:13:49;11.73;;;8.05;;
21472;SDS011;10898;48.072;11.682;2023-01-29T14:17:58;11.15;;;8.70;;
21472;SDS011;10898;48.072;11.682;2023-01-29T14:20:02;11.70;;;8.95;;
21472;SDS011;10898;48.072;11.682;2023-01-29T14:22:20;11.02;;;7.75;;
21472;SDS011;10898;48.072;11.682;2023-01-29T14:24:23;10.05;;;7.72;;
21472;SDS011;10898;48.072;11.682;2023-01-29T14:31:28;12.40;;;8.75;;
21472;SDS011;10898;48.072;11.682;2023-01-29T14:33:35;13.68;;;9.50;;
21472;SDS011;10898;48.072;11.682;2023-01-29T14:35:38;11.50;;;8.95;;